KITH/ITH METAR and TAF weather

Enter ICAO airport designator
Station Type Date Time Source
KITH METAR 2022/09/26 09:30 UTC NOAA

KITH 260930Z 24005KT 10SM OVC022 13/12 A2961 RMK AO2


Station Type Date Time Source
KITH Decoded METAR 2022/09/26 09:30 UTC NOAA

Ithaca, Ithaca Tompkins Regional Airport, NY, United States (KITH) 42-29-27N 076-27-30W
Sep 26, 2022 - 05:30 AM EDT / 2022.09.26 0930 UTC
Wind: from the WSW (240 degrees) at 6 MPH (5 KT):0
Visibility: 10 mile(s):0
Sky conditions: overcast
Temperature: 55 F (13 C)
Dew Point: 53 F (12 C)
Relative Humidity: 93%
Pressure (altimeter): 29.61 in. Hg (1002 hPa)
ob: KITH 260930Z 24005KT 10SM OVC022 13/12 A2961 RMK AO2
cycle: 9

Station Type Date Time Source
KITH TAF 2022/09/26 09:12 UTC NOAA

TAF
AMD KITH 260909Z 2609/2706 21005KT P6SM BKN020
FM261500 23010G15KT P6SM BKN020
FM262000 23009G15KT P6SM -SHRA BKN040

Example: see airport list